createdAt,value
2022-09-20T00:00:21.354Z,87.63
2022-09-20T00:03:45.084Z,87.59
2022-09-20T00:07:06.545Z,87.44
2022-09-20T00:10:31.077Z,87.40
2022-09-20T00:13:56.243Z,87.60
2022-09-20T00:17:18.046Z,87.51
2022-09-20T00:20:46.160Z,87.53
2022-09-20T00:24:07.904Z,87.02
2022-09-20T00:27:31.357Z,87.02
2022-09-20T00:30:53.675Z,86.75
2022-09-20T00:34:32.831Z,86.81
2022-09-20T00:37:54.308Z,86.95
2022-09-20T00:41:15.958Z,86.64
2022-09-20T00:44:55.214Z,86.50
2022-09-20T00:48:23.290Z,86.09
2022-09-20T00:51:48.252Z,86.03
2022-09-20T00:55:10.846Z,86.74
2022-09-20T00:58:37.603Z,86.51
2022-09-20T01:02:03.958Z,86.57
2022-09-20T01:05:26.899Z,86.57
2022-09-20T01:08:51.799Z,86.33
2022-09-20T01:12:18.960Z,86.12
2022-09-20T01:15:41.747Z,86.12
2022-09-20T01:19:15.354Z,86.16
2022-09-20T01:22:45.611Z,86.22
2022-09-20T01:26:41.960Z,85.88
2022-09-20T01:30:08.318Z,85.90
2022-09-20T01:33:36.652Z,85.92
2022-09-20T01:37:04.491Z,86.07
2022-09-20T01:40:32.342Z,85.81
2022-09-20T01:43:57.224Z,86.37
2022-09-20T01:47:31.822Z,86.15
2022-09-20T01:51:28.304Z,86.05
2022-09-20T01:55:26.893Z,86.36
2022-09-20T01:59:25.326Z,86.32
2022-09-20T02:03:29.342Z,86.25
2022-09-20T02:07:07.806Z,86.23
2022-09-20T02:10:48.553Z,86.36
2022-09-20T02:14:31.659Z,86.24
2022-09-20T02:18:10.466Z,85.92
2022-09-20T02:21:40.106Z,85.83
2022-09-20T02:25:13.163Z,86.07
2022-09-20T02:28:56.611Z,86.23
2022-09-20T02:32:30.250Z,86.59
2022-09-20T02:36:08.742Z,86.72
2022-09-20T02:39:39.480Z,86.92
2022-09-20T02:43:09.815Z,86.54
2022-09-20T02:46:36.483Z,86.81
2022-09-20T02:50:14.557Z,87.11
2022-09-20T02:53:44.311Z,87.34
2022-09-20T02:57:15.382Z,87.40
2022-09-20T03:00:45.741Z,87.19
2022-09-20T03:04:21.782Z,86.93
2022-09-20T03:07:55.597Z,87.15
2022-09-20T03:11:30.292Z,87.01
2022-09-20T03:15:05.316Z,86.49
2022-09-20T03:18:35.901Z,86.71
2022-09-20T03:22:06.479Z,86.81
2022-09-20T03:25:53.067Z,86.46
2022-09-20T03:29:36.246Z,86.34
2022-09-20T03:33:05.648Z,86.23
2022-09-20T03:36:43.067Z,86.19
2022-09-20T03:40:23.944Z,86.03
2022-09-20T03:44:09.891Z,85.62
2022-09-20T03:47:58.722Z,85.91
2022-09-20T03:51:33.744Z,85.76
2022-09-20T03:55:09.687Z,86.05
2022-09-20T03:58:45.222Z,86.54
2022-09-20T04:02:29.328Z,86.43
2022-09-20T04:06:10.676Z,86.50
2022-09-20T04:09:54.754Z,86.28
2022-09-20T04:13:32.735Z,86.52
2022-09-20T04:17:02.293Z,86.83
2022-09-20T04:20:32.515Z,86.54
2022-09-20T04:24:01.978Z,87.10
2022-09-20T04:27:29.883Z,86.92
2022-09-20T04:30:57.279Z,86.41
2022-09-20T04:34:46.012Z,86.74
2022-09-20T04:38:11.675Z,86.37
2022-09-20T04:42:12.607Z,86.46
2022-09-20T04:46:06.845Z,86.55
2022-09-20T04:49:59.880Z,86.65
2022-09-20T04:53:55.564Z,86.33
2022-09-20T04:57:57.811Z,86.37
2022-09-20T05:01:55.876Z,86.23
2022-09-20T05:05:58.186Z,86.42
2022-09-20T05:09:51.000Z,86.39
2022-09-20T05:13:22.065Z,86.48
2022-09-20T05:17:02.974Z,86.58
2022-09-20T05:20:50.960Z,86.45
2022-09-20T05:24:26.339Z,85.69
2022-09-20T05:27:53.605Z,86.27
2022-09-20T05:31:21.821Z,86.23
2022-09-20T05:34:51.063Z,86.35
2022-09-20T05:38:18.698Z,86.47
2022-09-20T05:41:47.029Z,86.53
2022-09-20T05:45:23.769Z,86.19
2022-09-20T05:48:57.546Z,86.68
2022-09-20T05:52:39.971Z,86.61
2022-09-20T05:56:14.141Z,86.77
2022-09-20T05:59:52.928Z,86.85
2022-09-20T06:03:24.082Z,87.29
2022-09-20T06:06:58.629Z,87.50
2022-09-20T06:11:01.834Z,87.48
2022-09-20T06:14:38.779Z,87.52
2022-09-20T06:18:17.703Z,87.54
2022-09-20T06:21:47.586Z,87.84
2022-09-20T06:25:17.832Z,87.94
2022-09-20T06:28:42.653Z,88.34
2022-09-20T06:32:04.174Z,88.13
2022-09-20T06:35:34.819Z,88.40
2022-09-20T06:39:25.074Z,88.17
2022-09-20T06:42:46.701Z,88.32
2022-09-20T06:46:08.956Z,88.41
2022-09-20T06:49:30.920Z,88.42
2022-09-20T06:52:55.091Z,88.66
2022-09-20T06:56:20.463Z,89.17
2022-09-20T06:59:42.212Z,89.56
2022-09-20T07:03:04.058Z,90.04
2022-09-20T07:06:26.311Z,90.14
2022-09-20T07:09:49.013Z,90.29
2022-09-20T07:13:13.845Z,90.59
2022-09-20T07:16:36.903Z,90.58
2022-09-20T07:19:59.908Z,91.09
2022-09-20T07:23:21.546Z,91.33
2022-09-20T07:26:56.235Z,91.86
2022-09-20T07:30:19.139Z,92.01
2022-09-20T07:33:40.546Z,92.13
2022-09-20T07:37:01.808Z,91.88
2022-09-20T07:40:23.695Z,91.80
2022-09-20T07:43:47.179Z,91.40
2022-09-20T07:47:11.210Z,91.09
2022-09-20T07:50:32.734Z,91.31
2022-09-20T07:53:55.742Z,90.78
2022-09-20T07:57:17.375Z,89.82
2022-09-20T08:00:40.289Z,89.07
2022-09-20T08:04:02.620Z,87.53
2022-09-20T08:07:24.277Z,88.54
2022-09-20T08:10:46.228Z,88.65
2022-09-20T08:14:09.461Z,88.09
2022-09-20T08:17:32.647Z,86.07
2022-09-20T08:20:55.449Z,86.24
2022-09-20T08:24:17.374Z,85.08
2022-09-20T08:27:39.179Z,85.06
2022-09-20T08:31:04.807Z,86.18
2022-09-20T08:34:27.705Z,82.86
2022-09-20T08:37:50.390Z,82.24
2022-09-20T08:41:15.180Z,82.81
2022-09-20T08:44:45.260Z,82.41
2022-09-20T08:48:14.414Z,82.05
2022-09-20T08:51:41.086Z,80.79
2022-09-20T08:55:07.660Z,79.99
2022-09-20T08:58:29.294Z,79.13
2022-09-20T09:01:52.255Z,75.52
2022-09-20T09:05:32.428Z,76.51
2022-09-20T09:08:59.357Z,74.87
2022-09-20T09:12:27.934Z,74.36
2022-09-20T09:15:56.791Z,73.82
2022-09-20T09:19:36.047Z,69.94
2022-09-20T09:23:04.747Z,70.57
2022-09-20T09:26:28.586Z,71.02
2022-09-20T09:29:51.965Z,70.74
2022-09-20T09:33:20.840Z,69.82
2022-09-20T09:36:45.366Z,67.69
2022-09-20T09:40:15.211Z,67.58
2022-09-20T09:43:40.541Z,68.52
2022-09-20T09:47:02.284Z,65.37
2022-09-20T09:50:26.154Z,65.41
2022-09-20T09:53:50.159Z,64.77
2022-09-20T09:57:28.338Z,63.92
2022-09-20T10:00:53.746Z,65.72
2022-09-20T10:04:21.540Z,65.32
2022-09-20T10:07:49.253Z,64.84
2022-09-20T10:11:20.925Z,65.20
2022-09-20T10:14:54.831Z,63.86
2022-09-20T10:18:42.795Z,65.01
2022-09-20T10:22:12.489Z,65.69
2022-09-20T10:25:43.222Z,64.68
2022-09-20T10:29:15.690Z,64.46
2022-09-20T10:32:59.500Z,65.01
2022-09-20T10:36:33.778Z,64.55
2022-09-20T10:40:07.995Z,65.04
2022-09-20T10:43:39.842Z,65.94
2022-09-20T10:47:08.889Z,65.72
2022-09-20T10:50:43.595Z,64.20
2022-09-20T10:54:17.755Z,63.07
2022-09-20T10:58:01.437Z,64.37
2022-09-20T11:01:29.982Z,64.47
2022-09-20T11:05:10.569Z,65.67
2022-09-20T11:08:36.471Z,66.61
2022-09-20T11:12:07.931Z,65.58
2022-09-20T11:15:33.926Z,64.60
2022-09-20T11:19:01.210Z,64.78
2022-09-20T11:22:27.679Z,66.60
2022-09-20T11:25:52.893Z,61.03
2022-09-20T11:29:26.136Z,63.55
2022-09-20T11:32:53.017Z,66.75
2022-09-20T11:36:21.045Z,66.97
2022-09-20T11:39:49.025Z,67.51
2022-09-20T11:43:11.981Z,66.88
2022-09-20T11:46:44.163Z,68.80
2022-09-20T11:50:43.144Z,69.86
2022-09-20T11:54:29.679Z,70.64
2022-09-20T11:58:02.294Z,70.86
2022-09-20T12:01:28.897Z,70.66
2022-09-20T12:04:53.501Z,68.94
2022-09-20T12:08:23.791Z,69.91
2022-09-20T12:11:45.327Z,72.66
2022-09-20T12:15:22.922Z,73.94
2022-09-20T12:19:02.139Z,73.54
2022-09-20T12:22:30.229Z,73.27
2022-09-20T12:26:03.086Z,70.86
2022-09-20T12:29:54.247Z,68.77
2022-09-20T12:33:22.164Z,68.58
2022-09-20T12:36:46.589Z,68.68
2022-09-20T12:40:19.105Z,71.54
2022-09-20T12:43:53.218Z,70.57
2022-09-20T12:47:19.642Z,71.36
2022-09-20T12:50:58.622Z,70.87
2022-09-20T12:54:20.316Z,70.41
2022-09-20T12:57:43.988Z,71.51
2022-09-20T13:01:39.178Z,69.99
2022-09-20T13:05:00.924Z,74.54
2022-09-20T13:08:24.762Z,77.28
2022-09-20T13:11:50.945Z,77.98
2022-09-20T13:15:19.576Z,75.81
2022-09-20T13:18:42.171Z,75.40
2022-09-20T13:22:07.957Z,72.10
2022-09-20T13:25:29.917Z,70.95
2022-09-20T13:28:55.296Z,71.89
2022-09-20T13:32:18.815Z,72.78
2022-09-20T13:35:41.461Z,73.57
2022-09-20T13:39:03.229Z,74.86
2022-09-20T13:42:25.860Z,75.12
2022-09-20T13:45:50.726Z,75.76
2022-09-20T13:49:20.830Z,73.03
2022-09-20T13:52:46.596Z,66.18
2022-09-20T13:56:11.944Z,64.75
2022-09-20T13:59:41.550Z,62.63
2022-09-20T14:03:03.147Z,63.62
2022-09-20T14:06:29.792Z,63.38
2022-09-20T14:09:51.768Z,65.30
2022-09-20T14:13:17.697Z,65.51
2022-09-20T14:16:44.916Z,65.82
2022-09-20T14:20:08.287Z,67.92
2022-09-20T14:23:31.593Z,68.92
2022-09-20T14:27:06.952Z,67.17
2022-09-20T14:30:31.932Z,68.61
2022-09-20T14:33:55.947Z,67.54
2022-09-20T14:37:25.675Z,65.98
2022-09-20T14:40:49.916Z,66.23
2022-09-20T14:44:24.613Z,61.76
2022-09-20T14:47:56.573Z,60.61
2022-09-20T14:51:25.404Z,61.94
2022-09-20T14:54:59.866Z,62.96
2022-09-20T14:58:24.724Z,64.55
2022-09-20T15:01:56.599Z,64.13
2022-09-20T15:05:25.923Z,64.07
2022-09-20T15:08:47.807Z,63.64
2022-09-20T15:12:14.682Z,64.15
2022-09-20T15:15:37.525Z,64.54
2022-09-20T15:18:58.968Z,63.18
2022-09-20T15:22:20.553Z,59.97
2022-09-20T15:25:42.164Z,60.01
2022-09-20T15:29:03.507Z,58.56
2022-09-20T15:32:26.661Z,58.05
2022-09-20T15:35:49.154Z,57.00
2022-09-20T15:39:10.671Z,56.78
2022-09-20T15:42:32.213Z,56.43
2022-09-20T15:45:55.018Z,55.93
2022-09-20T15:49:17.817Z,55.00
2022-09-20T15:52:41.580Z,54.09
2022-09-20T15:56:05.174Z,53.32
2022-09-20T15:59:28.504Z,52.71
2022-09-20T16:02:50.936Z,52.28
2022-09-20T16:06:14.937Z,52.53
2022-09-20T16:09:37.925Z,53.95
2022-09-20T16:12:59.175Z,55.72
2022-09-20T16:16:20.481Z,56.66
2022-09-20T16:19:42.556Z,56.75
2022-09-20T16:23:05.401Z,57.75
2022-09-20T16:26:29.105Z,58.53
2022-09-20T16:29:50.584Z,59.11
2022-09-20T16:33:12.046Z,61.13
2022-09-20T16:36:34.477Z,61.37
2022-09-20T16:39:57.617Z,61.97
2022-09-20T16:43:26.246Z,61.19
2022-09-20T16:46:47.715Z,62.25
2022-09-20T16:50:11.900Z,62.65
2022-09-20T16:53:33.021Z,63.39
2022-09-20T16:56:56.220Z,63.23
2022-09-20T17:00:20.956Z,63.52
2022-09-20T17:03:42.567Z,63.90
2022-09-20T17:07:04.329Z,63.89
2022-09-20T17:10:28.538Z,64.30
2022-09-20T17:13:52.371Z,65.63
2022-09-20T17:17:13.968Z,67.48
2022-09-20T17:20:35.407Z,69.28
2022-09-20T17:23:58.741Z,70.13
2022-09-20T17:27:20.467Z,70.57
2022-09-20T17:30:43.011Z,70.93
2022-09-20T17:34:07.751Z,72.01
2022-09-20T17:37:29.284Z,72.82
2022-09-20T17:41:00.724Z,73.04
2022-09-20T17:44:22.026Z,73.47
2022-09-20T17:47:47.126Z,73.43
2022-09-20T17:51:12.630Z,74.02
2022-09-20T17:54:34.045Z,74.95
2022-09-20T17:57:55.205Z,75.33
2022-09-20T18:01:20.250Z,75.05
2022-09-20T18:04:43.385Z,75.88
2022-09-20T18:08:05.172Z,75.03
2022-09-20T18:11:31.552Z,75.87
2022-09-20T18:14:53.791Z,76.28
2022-09-20T18:18:15.408Z,76.75
2022-09-20T18:21:39.662Z,76.59
2022-09-20T18:25:01.323Z,77.58
2022-09-20T18:28:22.623Z,77.88
2022-09-20T18:31:48.186Z,77.51
2022-09-20T18:35:10.482Z,78.07
2022-09-20T18:38:33.695Z,78.22
2022-09-20T18:41:56.545Z,78.25
2022-09-20T18:45:21.971Z,78.37
2022-09-20T18:48:44.096Z,78.05
2022-09-20T18:52:05.931Z,78.62
2022-09-20T18:55:30.024Z,78.67
2022-09-20T18:58:53.435Z,79.09
2022-09-20T19:02:47.249Z,79.08
2022-09-20T19:06:12.026Z,79.75
2022-09-20T19:09:40.317Z,79.63
2022-09-20T19:13:12.621Z,79.93
2022-09-20T19:16:36.925Z,79.68
2022-09-20T19:20:05.237Z,80.35
2022-09-20T19:23:43.204Z,80.09
2022-09-20T19:27:05.323Z,79.99
2022-09-20T19:30:29.122Z,80.08
2022-09-20T19:33:54.965Z,80.51
2022-09-20T19:37:28.447Z,80.83
2022-09-20T19:41:00.305Z,80.36
2022-09-20T19:44:34.978Z,80.98
2022-09-20T19:48:06.248Z,80.96
2022-09-20T19:51:28.038Z,80.88
2022-09-20T19:54:53.040Z,80.69
2022-09-20T19:58:15.037Z,81.20
2022-09-20T20:01:37.330Z,80.68
2022-09-20T20:05:01.241Z,80.70
2022-09-20T20:08:32.731Z,81.19
2022-09-20T20:12:10.210Z,80.65
2022-09-20T20:15:43.160Z,80.68
2022-09-20T20:19:20.403Z,80.79
2022-09-20T20:23:11.146Z,80.84
2022-09-20T20:26:33.053Z,80.69
2022-09-20T20:29:55.300Z,80.57
2022-09-20T20:33:18.910Z,80.47
2022-09-20T20:36:40.550Z,80.84
2022-09-20T20:40:03.627Z,80.39
2022-09-20T20:43:27.925Z,80.40
2022-09-20T20:46:50.735Z,80.46
2022-09-20T20:50:12.651Z,80.61
2022-09-20T20:53:36.178Z,80.87
2022-09-20T20:56:59.372Z,80.96
2022-09-20T21:00:21.385Z,80.87
2022-09-20T21:03:47.093Z,81.19
2022-09-20T21:07:08.971Z,80.81
2022-09-20T21:10:31.168Z,81.38
2022-09-20T21:13:55.497Z,81.07
2022-09-20T21:17:17.307Z,81.15
2022-09-20T21:20:39.651Z,81.26
2022-09-20T21:24:02.932Z,80.98
2022-09-20T21:27:24.522Z,81.55
2022-09-20T21:30:47.753Z,81.08
2022-09-20T21:34:11.088Z,81.50
2022-09-20T21:37:32.663Z,81.01
2022-09-20T21:41:02.556Z,80.67
2022-09-20T21:44:24.213Z,80.42
2022-09-20T21:47:49.951Z,80.87
2022-09-20T21:51:12.560Z,80.58
2022-09-20T21:54:33.785Z,80.75
2022-09-20T21:57:55.372Z,80.89
2022-09-20T22:01:18.957Z,80.71
2022-09-20T22:04:41.998Z,80.12
2022-09-20T22:08:03.810Z,80.17
2022-09-20T22:11:27.442Z,80.18
2022-09-20T22:14:49.020Z,80.37
2022-09-20T22:18:10.857Z,80.34
2022-09-20T22:21:35.130Z,80.16
2022-09-20T22:24:59.586Z,79.74
2022-09-20T22:28:21.166Z,79.89
2022-09-20T22:31:45.759Z,79.96
2022-09-20T22:35:07.616Z,79.99
2022-09-20T22:38:32.089Z,80.06
2022-09-20T22:41:53.380Z,80.08
2022-09-20T22:45:15.301Z,79.91
2022-09-20T22:48:37.182Z,80.02
2022-09-20T22:51:58.632Z,79.97
2022-09-20T22:55:21.302Z,79.89
2022-09-20T22:58:44.679Z,80.19
2022-09-20T23:02:05.929Z,80.04
2022-09-20T23:05:28.108Z,80.20
2022-09-20T23:08:49.527Z,80.28
2022-09-20T23:12:12.450Z,80.82
2022-09-20T23:15:33.674Z,80.85
2022-09-20T23:18:56.147Z,80.75
2022-09-20T23:22:17.642Z,80.52
2022-09-20T23:25:38.929Z,80.48
2022-09-20T23:29:03.527Z,81.32
2022-09-20T23:32:25.850Z,81.22
2022-09-20T23:35:47.644Z,81.19
2022-09-20T23:39:10.372Z,80.81
2022-09-20T23:42:31.540Z,80.59
2022-09-20T23:45:54.202Z,80.64
2022-09-20T23:49:16.153Z,80.67
2022-09-20T23:52:37.614Z,81.27
2022-09-20T23:55:59.260Z,80.82
2022-09-20T23:59:20.518Z,81.00
